Terminal Aerodrome Forecast
Issued by NWS

Home | Current Version | Previous Version | Text Only | Print | Product List | Glossary On
Versions: 1 2 3 4 5 6 7 8 9 10 11 12
000
FTUS45 KABQ 022300
TAFGUP
TAF
KGUP 022325Z 0300/0324 26012G18KT P6SM FEW090 SCT250
     FM030200 23007KT P6SM SKC
     FM030500 VRB06KT P6SM SKC
     FM031900 24012G20KT P6SM FEW090=

USA.gov is the U.S. government's official web portal to all federal, state and local government web resources and services.